ALK151 VCBI-OPKC
Flight info
| Callsign | ALK151 |
|---|---|
| Flight time | N/A |
| Altitude | 38000 |
| Route | DEMON1D DEMON R461 GUNIM N563 IKATI Q13 BBB W14 TAXUN N519 SAPNA/N0438F390 N519 MINAR |
| Aircraft | A20N/M-SDE2E3FGHIRWXY/LB1 |
Departure
| Time | 2026-04-26 07:32 |
|---|---|
| Airport | Bandaranaike International Colombo Airport (VCBI) |
Arrival
| Time | N/A |
|---|---|
| Airport | Jinnah International Airport (OPKC) |
| Time | Latitude | Longitude | Altitude | Speed | Heading |
|---|---|---|---|---|---|
| 2026-04-26 07:16 | 7.17615 | 79.88567 | 30 ft | 0 kts | 217° |
| 2026-04-26 07:21 | 7.17617 | 79.88569 | 30 ft | 3 kts | 217° |
| 2026-04-26 07:22 | 7.17632 | 79.88581 | 30 ft | 3 kts | 217° |
| 2026-04-26 07:22 | 7.17647 | 79.88592 | 30 ft | 3 kts | 217° |
| 2026-04-26 07:22 | 7.17662 | 79.88603 | 30 ft | 3 kts | 217° |
| 2026-04-26 07:22 | 7.17677 | 79.88615 | 30 ft | 3 kts | 217° |
| 2026-04-26 07:23 | 7.17689 | 79.88626 | 30 ft | 3 kts | 242° |
| 2026-04-26 07:23 | 7.17693 | 79.88644 | 30 ft | 3 kts | 283° |
| 2026-04-26 07:23 | 7.17689 | 79.88657 | 30 ft | 0 kts | 311° |
| 2026-04-26 07:26 | 7.17699 | 79.88644 | 30 ft | 5 kts | 310° |
| 2026-04-26 07:26 | 7.17730 | 79.88605 | 30 ft | 9 kts | 307° |
| 2026-04-26 07:26 | 7.17770 | 79.88553 | 30 ft | 10 kts | 308° |
| 2026-04-26 07:26 | 7.17811 | 79.88499 | 30 ft | 10 kts | 307° |
| 2026-04-26 07:27 | 7.17852 | 79.88446 | 30 ft | 9 kts | 316° |
| 2026-04-26 07:27 | 7.17898 | 79.88441 | 30 ft | 7 kts | 18° |
| 2026-04-26 07:27 | 7.17936 | 79.88464 | 31 ft | 6 kts | 36° |
| 2026-04-26 07:27 | 7.17978 | 79.88496 | 30 ft | 10 kts | 38° |
| 2026-04-26 07:28 | 7.18044 | 79.88548 | 30 ft | 14 kts | 36° |
| 2026-04-26 07:28 | 7.18123 | 79.88607 | 30 ft | 14 kts | 37° |
| 2026-04-26 07:28 | 7.18199 | 79.88666 | 30 ft | 14 kts | 37° |
| 2026-04-26 07:28 | 7.18274 | 79.88723 | 30 ft | 13 kts | 39° |
| 2026-04-26 07:29 | 7.18347 | 79.88779 | 30 ft | 12 kts | 40° |
| 2026-04-26 07:29 | 7.18414 | 79.88829 | 30 ft | 12 kts | 36° |
| 2026-04-26 07:29 | 7.18480 | 79.88878 | 31 ft | 12 kts | 35° |
| 2026-04-26 07:29 | 7.18563 | 79.88933 | 31 ft | 16 kts | 31° |
| 2026-04-26 07:30 | 7.18656 | 79.89014 | 31 ft | 19 kts | 39° |
| 2026-04-26 07:30 | 7.18764 | 79.89099 | 31 ft | 20 kts | 36° |
| 2026-04-26 07:30 | 7.18882 | 79.89188 | 30 ft | 23 kts | 35° |
| 2026-04-26 07:30 | 7.19016 | 79.89290 | 30 ft | 24 kts | 36° |
| 2026-04-26 07:31 | 7.19147 | 79.89390 | 30 ft | 18 kts | 36° |
| 2026-04-26 07:31 | 7.19237 | 79.89373 | 30 ft | 15 kts | 310° |
| 2026-04-26 07:31 | 7.19296 | 79.89292 | 30 ft | 13 kts | 270° |
| 2026-04-26 07:31 | 7.19133 | 79.89151 | 31 ft | 61 kts | 217° |
| 2026-04-26 07:32 | 7.18629 | 79.88767 | 32 ft | 120 kts | 216° |
| 2026-04-26 07:32 | 7.17834 | 79.88153 | 49 ft | 163 kts | 219° |
| 2026-04-26 07:32 | 7.16915 | 79.87484 | 538 ft | 162 kts | 217° |
| 2026-04-26 07:32 | 7.16002 | 79.86820 | 1122 ft | 162 kts | 213° |
| 2026-04-26 07:33 | 7.14917 | 79.86572 | 1625 ft | 165 kts | 165° |
| 2026-04-26 07:33 | 7.13982 | 79.87293 | 2034 ft | 187 kts | 107° |
| 2026-04-26 07:33 | 7.13972 | 79.88674 | 2287 ft | 218 kts | 64° |
| 2026-04-26 07:33 | 7.15040 | 79.89827 | 2674 ft | 239 kts | 25° |
| 2026-04-26 07:34 | 7.16705 | 79.90089 | 3259 ft | 252 kts | 358° |
| 2026-04-26 07:34 | 7.18487 | 79.89896 | 3881 ft | 263 kts | 349° |
| 2026-04-26 07:34 | 7.20279 | 79.89416 | 4587 ft | 271 kts | 344° |
| 2026-04-26 07:34 | 7.22061 | 79.88818 | 5331 ft | 275 kts | 342° |
| 2026-04-26 07:35 | 7.23902 | 79.88152 | 6087 ft | 280 kts | 341° |
| 2026-04-26 07:35 | 7.25679 | 79.87375 | 6798 ft | 285 kts | 331° |
| 2026-04-26 07:35 | 7.27375 | 79.86317 | 7529 ft | 289 kts | 328° |
| 2026-04-26 07:35 | 7.29048 | 79.85176 | 8277 ft | 292 kts | 326° |
| 2026-04-26 07:36 | 7.30719 | 79.83983 | 9022 ft | 296 kts | 326° |
| 2026-04-26 07:36 | 7.32402 | 79.82767 | 9757 ft | 300 kts | 326° |
| 2026-04-26 07:36 | 7.34115 | 79.81531 | 10301 ft | 309 kts | 326° |
| 2026-04-26 07:36 | 7.35920 | 79.80234 | 10584 ft | 327 kts | 326° |
| 2026-04-26 07:37 | 7.37814 | 79.78874 | 10953 ft | 340 kts | 326° |